Texas General Land Office
 Texas General Land Office
 George P. Bush, Commissioner

 Oil Spill Prevention
 & Response

Texas Automated Buoy System
Real Time Ocean Observations
Supporting Oil Spill Prevention and
Response since 1995
Geochemical and Environmental Research Group

NOAA - NDBC Buoy 42019 -- Texas Automated Buoy System

NBDC Buoy 42019
Freeport, TX
Conditions at 03/21/2019 23:50 UTC (03/21/2019 18:50 CDT)
27° 54.7830'N   95° 21.6000'W
60nm South of Freeport, TX
Anemometer height: 5m
Water Depth: 269 feet (82 meters)
Wind: 4.0 m/s (7.8 kts)
          From 130°T (SE)
Wind Gust: 5.00 m/s (9.7 kts) Pressure: 1020.7 mb (30.14 inHg)
Air Temp: 19°C (67 °F) Dewpoint: 10°C (51°F) Relative Humidity: 56%
Sea Surf Temp: 21 °C (70 °F) Wave Height: 0.5m (1.6 ft) Wave Period: 7
  


IMPORTANT: Notice to Mariners


   Date      Time    Speed     Dir   Gust    AtmPr   AirT   DewPt   WaterT  RelH  WvHt  WvPer
          |  (UTC) | (m/s) |  (°T) | (m/s) |  (mb) |  (°C) |  (°C) |  (°C) | (%) | (m) | (s) |
==========+========+=======+=======+=======+=======+=======+=======+=======+=====+=====+=====+
03/21/2019 00:00:00     3.0      70     4.0 1021.80    19.2    10.1    21.3    55 -99.0  -99
03/21/2019 00:10:00     3.0      70     4.0 1021.70    19.2    10.4    21.3    56 -99.0  -99
03/21/2019 00:20:00     3.0      80     4.0 1021.90    19.2    10.3    21.3    56 -99.0  -99
03/21/2019 00:30:00     3.0      70     4.0 1021.90    19.2    10.2    21.3    55 -99.0  -99
03/21/2019 00:40:00     2.0      80     4.0 1022.00    19.2    10.6    21.3    57 -99.0  -99
03/21/2019 00:50:00     3.0      90     4.0 1022.00    19.2    10.3    21.3    56   0.9    7
03/21/2019 01:00:00     2.0      80     3.0 1022.20    19.2    10.1    21.3    55 -99.0  -99
03/21/2019 01:10:00     3.0     100     4.0 1022.10    19.2    10.2    21.3    55 -99.0  -99
03/21/2019 01:20:00     2.0     110     3.0 1022.30    19.2    10.1    21.3    55 -99.0  -99
03/21/2019 01:30:00     3.0     110     5.0 1022.10    19.2    10.0    21.3    55 -99.0  -99
03/21/2019 01:40:00     3.0     110     4.0 1022.10    19.2    10.1    21.3    55 -99.0  -99
03/21/2019 01:50:00     4.0     100     5.0 1022.20    19.3    10.7    21.3    57   0.9    7
03/21/2019 02:00:00     3.0     110     4.0 1022.30    19.3    10.4    21.3    56 -99.0  -99
03/21/2019 02:10:00     4.0     110     5.0 1022.30    19.3    10.6    21.3    57 -99.0  -99
03/21/2019 02:20:00     4.0     120     5.0 1022.20    19.3    10.7    21.2    57 -99.0  -99
03/21/2019 02:30:00     4.0     120     5.0 1022.20    19.3    10.5    21.2    56 -99.0  -99
03/21/2019 02:40:00     5.0     130     6.0 1022.30    19.3    10.4    21.2    56 -99.0  -99
03/21/2019 02:50:00     4.0     130     6.0 1022.40    19.4    10.7    21.2    57   0.9    8
03/21/2019 03:00:00     4.0     130     5.0 1022.60    19.4    10.3    21.2    55 -99.0  -99
03/21/2019 03:10:00     3.0     140     5.0 1022.70    19.4     9.7    21.2    53 -99.0  -99
03/21/2019 03:20:00     3.0     130     4.0 1022.90    19.4    10.0    21.2    54 -99.0  -99
03/21/2019 03:30:00     3.0     140     4.0 1022.90    19.4     9.8    21.2    53 -99.0  -99
03/21/2019 03:40:00     3.0     140     4.0 1022.90    19.4    10.0    21.2    54 -99.0  -99
03/21/2019 03:50:00     3.0     140     4.0 1022.90    19.4    10.0    21.2    54   0.9    8
03/21/2019 04:00:00     3.0     150     4.0 1022.90    19.4    10.3    21.2    55 -99.0  -99
03/21/2019 04:10:00     3.0     150     4.0 1022.90    19.5    10.4    21.2    55 -99.0  -99
03/21/2019 04:20:00     3.0     160     3.0 1022.90    19.5    10.4    21.2    55 -99.0  -99
03/21/2019 04:30:00     3.0     170     4.0 1022.90    19.4    10.1   -99.0    54 -99.0  -99
03/21/2019 04:40:00     3.0     160     4.0 1022.90    19.5    10.6    21.2    56 -99.0  -99
03/21/2019 04:50:00     2.0     170     3.0 1022.90    19.5    10.8    21.2    57   0.8    7
03/21/2019 05:00:00     2.0     170     3.0 1022.90    19.4    10.2    21.2    55 -99.0  -99
03/21/2019 05:10:00     2.0     190     3.0 1022.80    19.5    10.6    21.2    56 -99.0  -99
03/21/2019 05:20:00     2.0     170     3.0 1022.70    19.5    10.4    21.2    55 -99.0  -99
03/21/2019 05:30:00     2.0     170     3.0 1022.60    19.4    10.7    21.2    57 -99.0  -99
03/21/2019 05:40:00     2.0     170     3.0 1022.40    19.5    10.5    21.2    56 -99.0  -99
03/21/2019 05:50:00     2.0     170     4.0 1022.30    19.5    10.6    21.2    56   0.8    8
03/21/2019 06:00:00     2.0     170     4.0 1022.40    19.5    10.6    21.2    56 -99.0  -99
03/21/2019 06:10:00     2.0     180     4.0 1022.40    19.5    10.6    21.2    56 -99.0  -99
03/21/2019 06:20:00     2.0     160     3.0 1022.40    19.5    10.9    21.2    57 -99.0  -99
03/21/2019 06:30:00     2.0     190     3.0 1022.40    19.5    11.0    21.2    57 -99.0  -99
03/21/2019 06:40:00     2.0     190     3.0 1022.50    19.5    11.1    21.2    58 -99.0  -99
03/21/2019 06:50:00     2.0     190     2.0 1022.60    19.4    11.0    21.2    58   0.8    6
03/21/2019 07:00:00     2.0     210     2.0 1022.60    19.5    11.1    21.2    58 -99.0  -99
03/21/2019 07:10:00     2.0     220     3.0 1022.80    19.5    11.0    21.2    57 -99.0  -99
03/21/2019 07:20:00     1.0     230     2.0 1022.70    19.5    10.8    21.2    57 -99.0  -99
03/21/2019 07:30:00     2.0     250     3.0 1022.80    19.5    10.9    21.2    57 -99.0  -99
03/21/2019 07:40:00     2.0     270     3.0 1022.80    19.5    11.1    21.2    58 -99.0  -99
03/21/2019 07:50:00     2.0     250     3.0 1022.70    19.5    11.1    21.2    58   0.8    6
03/21/2019 08:00:00     2.0     280     3.0 1022.60    19.5    11.2    21.2    58 -99.0  -99
03/21/2019 08:10:00     2.0     280     3.0 1022.60    19.5    11.4    21.2    59 -99.0  -99
03/21/2019 08:20:00     3.0     290     4.0 1022.40    19.5    11.2    21.2    58 -99.0  -99
03/21/2019 08:30:00     3.0     290     4.0 1022.40    19.5    11.2    21.2    58 -99.0  -99
03/21/2019 08:40:00     3.0     290     4.0 1022.30    19.5    11.5    21.2    59 -99.0  -99
03/21/2019 08:50:00     3.0     300     4.0 1022.40    19.5    11.4    21.2    59   0.7    7
03/21/2019 09:00:00     3.0     300     4.0 1022.20    19.5    11.6    21.2    60 -99.0  -99
03/21/2019 09:10:00     4.0     310     5.0 1022.20    19.5    11.9    21.1    61 -99.0  -99
03/21/2019 09:20:00     4.0     310     5.0 1022.10    19.4    11.9    21.1    61 -99.0  -99
03/21/2019 09:30:00     3.0     320     4.0 1022.10    19.4    12.1    21.1    62 -99.0  -99
03/21/2019 09:40:00     3.0     310     4.0 1022.00    19.4    12.3    21.1    63 -99.0  -99
03/21/2019 09:50:00     4.0     300     5.0 1022.00    19.4    12.5    21.1    64   0.7    8
03/21/2019 10:00:00     4.0     300     6.0 1022.00    19.3    12.6    21.1    65 -99.0  -99
03/21/2019 10:10:00     4.0     320     6.0 1022.10    19.3    12.8    21.1    66 -99.0  -99
03/21/2019 10:20:00     5.0     330     6.0 1022.30    19.3    13.3    21.1    68 -99.0  -99
03/21/2019 10:30:00     5.0     330     6.0 1022.30    19.2    13.2    21.1    68 -99.0  -99
03/21/2019 10:40:00     5.0     340     6.0 1022.30    19.2    13.7    21.1    70 -99.0  -99
03/21/2019 10:50:00     5.0     340     6.0 1022.30    19.0    14.1    21.1    73   0.7    7
03/21/2019 11:00:00     6.0     340     7.0 1022.40    18.9    14.1    21.1    73 -99.0  -99
03/21/2019 11:10:00     5.0     340     7.0 1022.50    18.9    13.8    21.1    72 -99.0  -99
03/21/2019 11:20:00     5.0     350     7.0 1022.60    18.9    13.5    21.1    70 -99.0  -99
03/21/2019 11:30:00     5.0     340     6.0 1022.60    18.9    13.5    21.1    70 -99.0  -99
03/21/2019 11:40:00     5.0     340     7.0 1022.80    18.9    13.2    21.1    69 -99.0  -99
03/21/2019 11:50:00     6.0     340     7.0 1022.90    18.9    13.4    21.1    70   0.6    7
03/21/2019 12:00:00     6.0     350     7.0 1022.90    18.9    13.6    21.0    71 -99.0  -99
03/21/2019 12:10:00     6.0     350     7.0 1022.90    18.9    13.6    21.0    71 -99.0  -99
03/21/2019 12:20:00     6.0     350     8.0 1022.90    18.8    13.8    21.0    72 -99.0  -99
03/21/2019 12:30:00     6.0     350     8.0 1023.10    18.6    13.7    21.0    73 -99.0  -99
03/21/2019 12:40:00     6.0     350     8.0 1023.10    18.7    14.0    21.0    74 -99.0  -99
03/21/2019 12:50:00     6.0     350     8.0 1023.30    18.6    14.1    21.0    75   0.7    6
03/21/2019 13:00:00     6.0     350     7.0 1023.40    18.6    14.2    21.0    75 -99.0  -99
03/21/2019 13:10:00     6.0     350     8.0 1023.50    18.5    14.2    21.0    76 -99.0  -99
03/21/2019 13:20:00     6.0     350     8.0 1023.50    18.5    14.5    21.0    77 -99.0  -99
03/21/2019 13:30:00     6.0     360     7.0 1023.60    18.3    14.3    21.0    77 -99.0  -99
03/21/2019 13:40:00     7.0     360     8.0 1023.70    18.2    14.0    21.0    76 -99.0  -99
03/21/2019 13:50:00     6.0     360     8.0 1023.90    18.2    14.4    21.0    78   0.7    8
03/21/2019 14:00:00     6.0      10     8.0 1023.90    17.9    14.2    21.0    78 -99.0  -99
03/21/2019 14:10:00     6.0     360     8.0 1024.10    18.0    14.1    21.0    77 -99.0  -99
03/21/2019 14:20:00     6.0     360     8.0 1024.10    18.1    13.9    21.0    76 -99.0  -99
03/21/2019 14:30:00     6.0      10     7.0 1024.20    18.2    14.0    21.0    76 -99.0  -99
03/21/2019 14:40:00     5.0      10     7.0 1024.30    18.2    14.0    21.0    76   0.7  -99
03/21/2019 14:50:00     5.0      10     7.0 1024.30    18.2    14.0    21.0    76   0.7    8
03/21/2019 15:00:00     5.0      20     7.0 1024.40    18.2    13.7    21.0    75 -99.0  -99
03/21/2019 15:10:00     5.0      20     6.0 1024.40    18.3    13.4    21.0    73 -99.0  -99
03/21/2019 15:20:00     5.0      30     7.0 1024.40    18.4    13.3    21.0    72 -99.0  -99
03/21/2019 15:30:00     5.0      30     7.0 1024.40    18.4    13.2    21.0    71 -99.0  -99
03/21/2019 15:40:00     5.0      30     6.0 1024.30    18.4    13.3    21.0    72   0.7  -99
03/21/2019 15:50:00     5.0      40     6.0 1024.40    18.4    12.8    21.0    69   0.7    4
03/21/2019 16:00:00     5.0      40     7.0 1024.50    18.5    13.1    21.0    70 -99.0  -99
03/21/2019 16:10:00     5.0      40     6.0 1024.50    18.5    13.1    21.0    70 -99.0  -99
03/21/2019 16:20:00     5.0      40     6.0 1024.50    18.5    13.3    21.0    71 -99.0  -99
03/21/2019 16:30:00     5.0      40     6.0 1024.50    18.5    13.2    21.0    71 -99.0  -99
03/21/2019 16:40:00     5.0      40     6.0 1024.40    18.5    12.9    21.0    69   0.6  -99
03/21/2019 16:50:00     5.0      40     6.0 1024.30    18.5    13.0    21.0    70   0.6    3
03/21/2019 17:00:00     5.0      40     6.0 1024.30    18.6    13.3    21.0    71 -99.0  -99
03/21/2019 17:10:00     5.0      40     7.0 1024.20    18.5    13.3    21.0    71 -99.0  -99
03/21/2019 17:20:00     5.0      50     6.0 1024.10    18.5    13.4    21.1    72 -99.0  -99
03/21/2019 17:30:00     5.0      50     6.0 1024.00    18.4    13.4    21.1    72 -99.0  -99
03/21/2019 17:40:00     5.0      50     6.0 1023.90    18.3    13.0    21.1    71 -99.0  -99
03/21/2019 17:50:00     5.0      40     6.0 1024.00    18.4    12.7    21.1    69   0.6    8
03/21/2019 18:00:00     5.0      40     6.0 1023.90    18.5    12.4    21.1    67 -99.0  -99
03/21/2019 18:10:00     5.0      40     7.0 1023.80    18.5    12.0    21.1    65 -99.0  -99
03/21/2019 18:20:00     5.0      40     6.0 1023.60    18.5    12.2    21.1    66 -99.0  -99
03/21/2019 18:30:00     5.0      40     6.0 1023.50    18.4    11.7    21.1    65 -99.0  -99
03/21/2019 18:40:00     5.0      40     7.0 1023.40    18.4    11.7    21.1    65 -99.0  -99
03/21/2019 18:50:00     5.0      40     6.0 1023.30    18.4    11.4    21.2    63   0.6    7
03/21/2019 19:00:00     5.0      50     6.0 1023.10    18.4    11.4    21.2    63 -99.0  -99
03/21/2019 19:10:00     5.0      50     6.0 1023.10    18.4    11.3    21.2    63 -99.0  -99
03/21/2019 19:20:00     5.0      50     6.0 1022.80    18.5    11.6    21.2    64 -99.0  -99
03/21/2019 19:30:00     5.0      60     6.0 1022.60    18.5    11.6    21.2    64 -99.0  -99
03/21/2019 19:40:00     5.0      50     6.0 1022.50    18.5    11.6    21.2    64   0.6  -99
03/21/2019 19:50:00     4.0      60     6.0 1022.40    18.5    11.4    21.2    63   0.6    7
03/21/2019 20:00:00     4.0      60     5.0 1022.20    18.6    11.4    21.2    62 -99.0  -99
03/21/2019 20:10:00     4.0      50     5.0 1022.10    18.6    11.1    21.2    61 -99.0  -99
03/21/2019 20:20:00     4.0      60     5.0 1021.90    18.6    10.9    21.2    60 -99.0  -99
03/21/2019 20:30:00     4.0      50     5.0 1021.80    18.7    11.1    21.2    61 -99.0  -99
03/21/2019 20:40:00     4.0      60     6.0 1021.60    18.7    10.9    21.2    60 -99.0  -99
03/21/2019 20:50:00     4.0      60     6.0 1021.50    18.7    10.9    21.3    60   0.6    4
03/21/2019 21:00:00     4.0      60     6.0 1021.50    18.7    10.5    21.2    58 -99.0  -99
03/21/2019 21:10:00     4.0      50     5.0 1021.50    18.8     9.9    21.3    56 -99.0  -99
03/21/2019 21:20:00     4.0      50     5.0 1021.50    18.8     9.1    21.3    53 -99.0  -99
03/21/2019 21:30:00     3.0      60     5.0 1021.40    18.9    10.2    21.3    57 -99.0  -99
03/21/2019 21:40:00     3.0      60     4.0 1021.50    18.9     9.6    21.3    54 -99.0  -99
03/21/2019 21:50:00     3.0      60     4.0 1021.50    18.9     9.3    21.3    53   0.6    4
03/21/2019 22:00:00     3.0      60     4.0 1021.50    18.9     9.7    21.3    55 -99.0  -99
03/21/2019 22:10:00     2.0      70     3.0 1021.50    19.0     9.8   -99.0    55 -99.0  -99
03/21/2019 22:20:00     3.0      70     3.0 1021.40    19.1     9.5    21.3    53 -99.0  -99
03/21/2019 22:30:00     2.0      80     4.0 1021.30    19.1     8.8    21.3    51 -99.0  -99
03/21/2019 22:40:00     3.0      90     4.0 1021.20    19.1     9.1    21.3    52 -99.0  -99
03/21/2019 22:50:00     2.0     100     3.0 1021.00    19.2     9.1    21.3    52   0.6    4
03/21/2019 23:00:00     2.0     110     3.0 1021.00    19.2     9.0    21.3    51 -99.0  -99
03/21/2019 23:10:00     3.0     130     4.0 1020.90    19.2    10.0    21.3    55 -99.0  -99
03/21/2019 23:20:00     3.0     140     4.0 1020.90    19.1     9.8    21.3    54 -99.0  -99
03/21/2019 23:40:00     4.0     140     4.0 1020.80    19.2    10.2    21.3    55 -99.0  -99
03/21/2019 23:50:00     4.0     130     5.0 1020.70    19.2    10.4    21.3    56   0.5    7